Time;durP1;ratioP1;P1;durP2;ratioP2;P2;SDS_P1;SDS_P2;PMS_P1;PMS_P2;Temp;Humidity;BMP_temperature;BMP_pressure;BME280_temperature;BME280_humidity;BME280_pressure;Samples;Min_cycle;Max_cycle;Signal;HPM_P1;HPM_P2
2023/10/06 00:01:42;;;;;;;12.77;3.97;;;;;;;;;;5077143;28;20037;-76
2023/10/06 00:04:12;;;;;;;14.63;4.13;;;;;;;;;;5075042;28;20053;-76
2023/10/06 00:06:40;;;;;;;12.50;4.30;;;;;;;;;;5053282;28;20049;-76
2023/10/06 00:09:06;;;;;;;16.88;5.10;;;;;;;;;;5048189;28;20056;-76
2023/10/06 00:11:32;;;;;;;11.57;4.63;;;;;;;;;;5051446;28;20514;-76
2023/10/06 00:14:07;;;;;;;12.73;4.68;;;;;;;;;;5051712;28;20048;-76
2023/10/06 00:16:38;;;;;;;14.93;4.32;;;;;;;;;;5048195;28;20417;-76
2023/10/06 00:19:12;;;;;;;13.23;5.38;;;;;;;;;;5042438;28;20041;-76
2023/10/06 00:21:46;;;;;;;14.13;4.43;;;;;;;;;;5041787;28;20057;-76
2023/10/06 00:24:12;;;;;;;15.60;4.82;;;;;;;;;;5041136;28;20451;-76
2023/10/06 00:26:42;;;;;;;12.35;4.72;;;;;;;;;;5042412;28;20493;-76
2023/10/06 00:29:18;;;;;;;14.25;4.40;;;;;;;;;;5043541;28;20041;-76
2023/10/06 00:31:48;;;;;;;13.55;4.57;;;;;;;;;;5042274;28;20964;-76
2023/10/06 00:34:20;;;;;;;17.48;5.10;;;;;;;;;;5044779;28;20068;-77
2023/10/06 00:36:56;;;;;;;13.73;5.07;;;;;;;;;;5041523;28;20115;-76
2023/10/06 00:39:23;;;;;;;16.13;4.78;;;;;;;;;;5078283;28;20318;-76
2023/10/06 00:42:03;;;;;;;8.57;4.70;;;;;;;;;;5056997;28;20090;-76
2023/10/06 00:44:30;;;;;;;13.10;4.78;;;;;;;;;;5043401;28;20045;-76
2023/10/06 00:46:58;;;;;;;15.55;5.10;;;;;;;;;;5040628;28;20047;-77
2023/10/06 00:49:25;;;;;;;10.82;4.50;;;;;;;;;;5054137;28;20124;-77
2023/10/06 00:51:53;;;;;;;12.60;5.28;;;;;;;;;;5051958;28;20048;-76
2023/10/06 00:54:19;;;;;;;13.25;4.50;;;;;;;;;;5044303;28;20091;-76
2023/10/06 00:56:47;;;;;;;15.43;4.88;;;;;;;;;;5055917;28;20400;-77
2023/10/06 00:59:13;;;;;;;15.45;5.10;;;;;;;;;;5047627;28;20052;-77
2023/10/06 01:01:40;;;;;;;12.68;4.38;;;;;;;;;;5078182;28;20084;-77
2023/10/06 01:04:11;;;;;;;14.68;4.30;;;;;;;;;;5044935;28;20746;-77
2023/10/06 01:06:38;;;;;;;11.85;4.03;;;;;;;;;;5052363;28;20045;-76
2023/10/06 01:11:43;;;;;;;13.90;4.60;;;;;;;;;;5039316;28;20041;-76
2023/10/06 01:14:09;;;;;;;14.65;4.45;;;;;;;;;;5042439;28;20510;-76
2023/10/06 01:16:35;;;;;;;14.10;4.72;;;;;;;;;;5041308;28;20536;-76
2023/10/06 01:19:33;;;;;;;15.70;4.63;;;;;;;;;;5042524;28;20045;-76
2023/10/06 01:22:06;;;;;;;14.15;4.57;;;;;;;;;;5045255;28;20049;-77
2023/10/06 01:24:32;;;;;;;12.68;4.43;;;;;;;;;;5043281;28;20053;-76
2023/10/06 01:27:00;;;;;;;11.98;4.35;;;;;;;;;;5040594;28;20052;-76
2023/10/06 01:29:30;;;;;;;12.80;4.38;;;;;;;;;;5044114;28;20041;-77
2023/10/06 01:31:57;;;;;;;14.90;4.00;;;;;;;;;;5038316;28;20044;-77
2023/10/06 01:34:27;;;;;;;12.93;3.95;;;;;;;;;;5042844;28;20173;-76
2023/10/06 01:36:53;;;;;;;12.88;4.05;;;;;;;;;;5043959;28;20048;-77
2023/10/06 01:39:22;;;;;;;11.60;3.72;;;;;;;;;;5046674;28;20049;-77
2023/10/06 01:41:49;;;;;;;13.25;4.57;;;;;;;;;;5042273;28;20068;-77
2023/10/06 01:44:18;;;;;;;12.20;4.60;;;;;;;;;;5047480;28;20128;-77
2023/10/06 01:46:52;;;;;;;11.20;3.92;;;;;;;;;;5041374;28;20045;-77
2023/10/06 01:49:19;;;;;;;14.07;4.28;;;;;;;;;;5061470;28;20076;-77
2023/10/06 01:51:45;;;;;;;13.88;4.72;;;;;;;;;;5051759;28;20132;-77
2023/10/06 01:54:14;;;;;;;13.55;3.60;;;;;;;;;;5071433;28;20044;-77
2023/10/06 01:56:44;;;;;;;18.10;4.78;;;;;;;;;;5041991;28;20045;-77
2023/10/06 01:59:16;;;;;;;13.43;4.10;;;;;;;;;;5054561;28;20115;-77
2023/10/06 02:01:43;;;;;;;13.77;4.05;;;;;;;;;;5056048;28;20139;-77
2023/10/06 02:04:18;;;;;;;16.48;4.15;;;;;;;;;;5050130;28;20049;-76
2023/10/06 02:06:45;;;;;;;13.13;4.53;;;;;;;;;;5049499;28;20055;-76
2023/10/06 02:09:25;;;;;;;13.10;4.63;;;;;;;;;;5053685;28;20053;-76
2023/10/06 02:11:53;;;;;;;17.50;4.97;;;;;;;;;;5046795;28;20053;-76
2023/10/06 02:14:22;;;;;;;13.25;4.47;;;;;;;;;;5053707;28;20046;-76
2023/10/06 02:16:49;;;;;;;14.35;4.60;;;;;;;;;;5051819;28;20401;-77
2023/10/06 02:19:16;;;;;;;13.52;4.20;;;;;;;;;;5054666;28;20080;-77
2023/10/06 02:21:45;;;;;;;13.15;4.68;;;;;;;;;;5049357;28;20041;-77
2023/10/06 02:24:18;;;;;;;15.13;4.93;;;;;;;;;;5049220;28;20037;-76
2023/10/06 02:26:56;;;;;;;16.67;5.50;;;;;;;;;;5046986;28;20072;-77
2023/10/06 02:29:23;;;;;;;12.15;4.65;;;;;;;;;;5049011;28;20037;-77
2023/10/06 02:31:49;;;;;;;18.90;5.88;;;;;;;;;;5044634;28;20044;-76
2023/10/06 02:34:21;;;;;;;15.10;4.32;;;;;;;;;;5050049;28;20047;-77
2023/10/06 02:36:47;;;;;;;18.60;4.63;;;;;;;;;;5046213;28;20048;-77
2023/10/06 02:39:16;;;;;;;15.85;5.07;;;;;;;;;;5045044;28;20048;-77
2023/10/06 02:41:42;;;;;;;15.45;4.30;;;;;;;;;;5044427;28;20500;-77
2023/10/06 02:44:14;;;;;;;19.33;4.70;;;;;;;;;;5046551;28;20492;-76
2023/10/06 02:46:44;;;;;;;14.45;5.10;;;;;;;;;;5048267;28;20119;-77
2023/10/06 02:49:13;;;;;;;14.10;4.32;;;;;;;;;;5059827;28;20516;-77
2023/10/06 02:51:48;;;;;;;17.40;4.63;;;;;;;;;;5046065;28;20053;-77
2023/10/06 02:56:46;;;;;;;18.77;4.88;;;;;;;;;;5053397;28;20036;-76
2023/10/06 02:59:22;;;;;;;13.73;4.25;;;;;;;;;;5057892;28;20706;-78
2023/10/06 03:01:52;;;;;;;17.00;4.93;;;;;;;;;;5051831;28;20527;-77
2023/10/06 03:04:21;;;;;;;16.65;4.90;;;;;;;;;;5058669;28;20055;-77
2023/10/06 03:06:53;;;;;;;15.05;4.45;;;;;;;;;;5071979;28;20033;-77
2023/10/06 03:09:43;;;;;;;19.37;5.57;;;;;;;;;;5082935;28;20053;-76
2023/10/06 03:12:15;;;;;;;10.77;3.88;;;;;;;;;;5049585;28;20080;-77
2023/10/06 03:14:42;;;;;;;16.13;5.20;;;;;;;;;;5051608;28;20120;-76
2023/10/06 03:17:09;;;;;;;16.95;4.80;;;;;;;;;;5054952;28;20391;-77
2023/10/06 03:19:41;;;;;;;25.38;5.07;;;;;;;;;;5046092;28;20037;-77
2023/10/06 03:22:10;;;;;;;16.17;4.30;;;;;;;;;;5039427;28;20045;-76
2023/10/06 03:24:43;;;;;;;20.38;4.88;;;;;;;;;;5033691;28;20072;-77
2023/10/06 03:27:12;;;;;;;13.68;4.47;;;;;;;;;;5026843;28;20049;-77
2023/10/06 03:29:55;;;;;;;16.02;4.78;;;;;;;;;;5066905;28;20041;-77
2023/10/06 03:32:32;;;;;;;17.77;5.15;;;;;;;;;;5050409;28;20098;-77
2023/10/06 03:35:06;;;;;;;21.38;5.20;;;;;;;;;;5049710;28;20052;-77
2023/10/06 03:37:37;;;;;;;19.75;5.50;;;;;;;;;;5056840;28;20052;-77
2023/10/06 03:40:11;;;;;;;17.52;5.53;;;;;;;;;;5056200;28;20573;-77
2023/10/06 03:42:38;;;;;;;16.75;5.28;;;;;;;;;;5040987;28;20485;-77
2023/10/06 03:45:18;;;;;;;21.02;5.10;;;;;;;;;;5044917;28;20060;-76
2023/10/06 03:47:48;;;;;;;19.00;5.10;;;;;;;;;;5044161;28;20045;-76
2023/10/06 03:50:17;;;;;;;19.83;5.35;;;;;;;;;;5051339;28;20060;-77
2023/10/06 03:52:47;;;;;;;17.98;5.35;;;;;;;;;;5051329;28;20049;-77
2023/10/06 03:55:18;;;;;;;15.48;4.88;;;;;;;;;;5055357;28;20056;-77
2023/10/06 03:57:49;;;;;;;16.77;5.15;;;;;;;;;;5039234;28;20095;-77
2023/10/06 04:00:19;;;;;;;18.38;5.03;;;;;;;;;;5055890;28;20045;-76
2023/10/06 04:02:48;;;;;;;19.45;4.97;;;;;;;;;;5045396;28;20562;-76
2023/10/06 04:05:18;;;;;;;18.08;4.65;;;;;;;;;;5050277;28;20059;-76
2023/10/06 04:07:45;;;;;;;16.65;4.97;;;;;;;;;;5049433;28;20053;-76
2023/10/06 04:10:15;;;;;;;21.70;5.57;;;;;;;;;;5050037;28;20056;-77
2023/10/06 04:12:43;;;;;;;24.88;5.82;;;;;;;;;;5046985;28;20083;-76
2023/10/06 04:15:14;;;;;;;24.05;5.85;;;;;;;;;;5048677;28;20059;-77
2023/10/06 04:17:40;;;;;;;24.92;5.57;;;;;;;;;;5084540;28;20041;-77
2023/10/06 04:20:07;;;;;;;18.85;5.22;;;;;;;;;;5056053;28;20041;-77
2023/10/06 04:22:36;;;;;;;18.33;5.55;;;;;;;;;;5049378;28;20094;-78
2023/10/06 04:25:09;;;;;;;22.67;6.03;;;;;;;;;;5044167;28;20088;-78
2023/10/06 04:27:44;;;;;;;21.02;5.53;;;;;;;;;;5048257;28;20041;-78
2023/10/06 04:30:19;;;;;;;19.75;5.95;;;;;;;;;;5043449;28;20033;-77
2023/10/06 04:32:46;;;;;;;20.13;5.60;;;;;;;;;;5005648;28;20436;-78
2023/10/06 04:35:20;;;;;;;20.92;5.40;;;;;;;;;;5049100;28;20041;-77
2023/10/06 04:37:48;;;;;;;19.23;5.30;;;;;;;;;;5079030;28;20119;-77
2023/10/06 04:40:20;;;;;;;18.15;5.53;;;;;;;;;;5061003;28;20053;-78
2023/10/06 04:42:47;;;;;;;24.77;5.70;;;;;;;;;;5044860;28;20060;-77
2023/10/06 04:45:14;;;;;;;17.20;5.70;;;;;;;;;;5050262;28;20311;-77
2023/10/06 04:47:43;;;;;;;18.95;5.95;;;;;;;;;;5055068;28;20044;-77
2023/10/06 04:50:09;;;;;;;15.55;5.10;;;;;;;;;;5078758;28;20107;-76
2023/10/06 04:52:36;;;;;;;19.70;5.28;;;;;;;;;;5050140;28;20037;-77
2023/10/06 04:55:04;;;;;;;20.95;5.88;;;;;;;;;;5046171;28;20051;-77
2023/10/06 04:57:30;;;;;;;16.17;5.38;;;;;;;;;;5048721;28;20060;-77
2023/10/06 04:59:56;;;;;;;17.42;4.93;;;;;;;;;;5046892;28;20045;-77
2023/10/06 05:02:24;;;;;;;16.73;5.05;;;;;;;;;;5044504;28;20048;-77
2023/10/06 05:04:51;;;;;;;17.20;5.88;;;;;;;;;;5049689;28;20041;-76
2023/10/06 05:07:17;;;;;;;20.42;5.32;;;;;;;;;;5047483;28;20095;-77
2023/10/06 05:09:43;;;;;;;18.88;5.28;;;;;;;;;;5044523;28;20063;-76
2023/10/06 05:12:14;;;;;;;26.67;7.78;;;;;;;;;;5045845;28;20056;-77
2023/10/06 05:14:40;;;;;;;23.35;6.07;;;;;;;;;;5050621;28;20090;-76
2023/10/06 05:17:06;;;;;;;15.77;5.20;;;;;;;;;;5074994;28;20413;-76
2023/10/06 05:19:35;;;;;;;20.42;5.57;;;;;;;;;;5044636;28;20063;-76
2023/10/06 05:22:03;;;;;;;18.63;5.25;;;;;;;;;;5077286;28;20515;-76
2023/10/06 05:24:32;;;;;;;16.80;5.07;;;;;;;;;;5040260;28;20059;-76
2023/10/06 05:26:58;;;;;;;17.20;5.50;;;;;;;;;;5042600;28;20075;-77
2023/10/06 05:29:25;;;;;;;18.55;5.40;;;;;;;;;;5041999;28;20045;-76
2023/10/06 05:31:52;;;;;;;14.90;5.90;;;;;;;;;;5038857;28;20053;-77
2023/10/06 05:34:18;;;;;;;26.35;6.35;;;;;;;;;;5041973;28;20040;-77
2023/10/06 05:36:44;;;;;;;21.98;6.13;;;;;;;;;;5041891;28;22068;-76
2023/10/06 05:39:11;;;;;;;18.02;5.85;;;;;;;;;;5036475;28;20060;-76
2023/10/06 05:41:44;;;;;;;14.27;5.07;;;;;;;;;;5041273;28;20053;-77
2023/10/06 05:44:12;;;;;;;23.65;6.05;;;;;;;;;;5042020;28;20041;-77
2023/10/06 05:46:38;;;;;;;23.65;5.95;;;;;;;;;;5036843;28;20797;-78
2023/10/06 05:49:08;;;;;;;27.45;6.75;;;;;;;;;;5039253;28;20052;-78
2023/10/06 05:51:38;;;;;;;23.70;6.07;;;;;;;;;;5046235;28;20055;-78
2023/10/06 05:54:09;;;;;;;20.40;6.70;;;;;;;;;;5041980;28;20051;-77
2023/10/06 05:56:42;;;;;;;20.13;5.20;;;;;;;;;;5045177;28;20507;-78
2023/10/06 05:59:18;;;;;;;;;;;;;;;;;;5051230;28;20045;-78
2023/10/06 06:02:00;;;;;;;21.73;6.15;;;;;;;;;;5047669;28;19925;-78
2023/10/06 06:04:30;;;;;;;23.73;5.95;;;;;;;;;;5050846;28;20047;-78
2023/10/06 06:07:02;;;;;;;22.95;5.70;;;;;;;;;;5045454;28;20056;-77
2023/10/06 06:09:33;;;;;;;22.70;6.60;;;;;;;;;;5042247;28;20049;-77
2023/10/06 06:12:03;;;;;;;22.10;7.60;;;;;;;;;;5060406;28;20393;-78
2023/10/06 06:14:32;;;;;;;32.10;7.68;;;;;;;;;;5047279;28;20612;-77
2023/10/06 06:16:58;;;;;;;22.50;6.45;;;;;;;;;;5041570;28;20064;-77
2023/10/06 06:19:24;;;;;;;21.98;6.93;;;;;;;;;;5053268;28;20059;-77
2023/10/06 06:21:52;;;;;;;27.40;6.35;;;;;;;;;;5053183;28;20041;-77
2023/10/06 06:24:22;;;;;;;27.23;6.80;;;;;;;;;;5043211;28;20497;-76
2023/10/06 06:26:49;;;;;;;26.88;6.60;;;;;;;;;;5040564;28;20131;-77
2023/10/06 06:29:15;;;;;;;22.13;6.20;;;;;;;;;;5046684;28;20144;-77
2023/10/06 06:31:46;;;;;;;23.88;7.75;;;;;;;;;;5042724;28;20040;-77
2023/10/06 06:34:12;;;;;;;28.77;7.63;;;;;;;;;;5053999;28;20133;-77
2023/10/06 06:36:38;;;;;;;26.27;6.70;;;;;;;;;;5056655;28;20122;-77
2023/10/06 06:39:04;;;;;;;28.27;6.82;;;;;;;;;;5060442;28;20092;-76
2023/10/06 06:41:30;;;;;;;20.35;6.38;;;;;;;;;;5060930;28;20037;-77
2023/10/06 06:44:00;;;;;;;25.77;7.57;;;;;;;;;;5055246;28;20147;-77
2023/10/06 06:46:29;;;;;;;26.58;7.32;;;;;;;;;;5043656;28;20424;-77
2023/10/06 06:48:55;;;;;;;26.20;6.97;;;;;;;;;;5079110;28;20053;-78
2023/10/06 06:51:27;;;;;;;25.08;7.25;;;;;;;;;;5042873;28;20044;-76
2023/10/06 06:53:56;;;;;;;28.38;6.65;;;;;;;;;;5054359;28;20381;-76
2023/10/06 06:56:23;;;;;;;24.70;7.07;;;;;;;;;;5059479;28;20950;-78
2023/10/06 06:58:53;;;;;;;26.02;6.20;;;;;;;;;;5053269;28;20558;-77
2023/10/06 07:01:20;;;;;;;15.45;4.97;;;;;;;;;;5054532;28;20052;-76
2023/10/06 07:03:46;;;;;;;26.00;6.57;;;;;;;;;;5053514;28;20040;-77
2023/10/06 07:06:16;;;;;;;20.85;6.47;;;;;;;;;;5046149;28;20053;-75
2023/10/06 07:08:42;;;;;;;24.38;5.78;;;;;;;;;;5077618;28;20103;-76
2023/10/06 07:11:10;;;;;;;22.77;5.90;;;;;;;;;;5039246;28;20060;-76
2023/10/06 07:13:36;;;;;;;24.67;5.70;;;;;;;;;;5046748;28;20566;-76
2023/10/06 07:16:05;;;;;;;22.55;5.10;;;;;;;;;;5047807;28;20090;-77
2023/10/06 07:18:31;;;;;;;20.65;6.80;;;;;;;;;;5047974;28;20048;-77
2023/10/06 07:21:00;;;;;;;18.83;6.47;;;;;;;;;;5048480;28;20045;-77
2023/10/06 07:23:26;;;;;;;22.13;6.10;;;;;;;;;;5073402;28;20049;-78
2023/10/06 07:25:54;;;;;;;17.40;5.35;;;;;;;;;;5044053;28;20408;-77
2023/10/06 07:28:23;;;;;;;22.17;5.78;;;;;;;;;;5046238;28;20052;-78
2023/10/06 07:30:49;;;;;;;24.73;5.63;;;;;;;;;;5048293;28;20057;-77
2023/10/06 07:33:15;;;;;;;18.85;6.30;;;;;;;;;;5050390;28;20053;-77
2023/10/06 07:35:47;;;;;;;22.67;6.40;;;;;;;;;;5050789;28;20045;-77
2023/10/06 07:38:13;;;;;;;23.58;6.15;;;;;;;;;;5043685;28;20099;-77
2023/10/06 07:40:43;;;;;;;22.33;6.20;;;;;;;;;;5039893;28;20052;-77
2023/10/06 07:43:10;;;;;;;18.98;5.43;;;;;;;;;;5054294;28;20114;-77
2023/10/06 07:45:36;;;;;;;22.98;5.95;;;;;;;;;;5052363;28;20045;-77
2023/10/06 07:48:05;;;;;;;18.15;5.72;;;;;;;;;;5044525;28;20497;-77
2023/10/06 07:50:34;;;;;;;12.95;4.78;;;;;;;;;;5035532;28;20049;-77
2023/10/06 07:53:03;;;;;;;24.92;6.45;;;;;;;;;;5035886;28;20401;-77
2023/10/06 07:55:31;;;;;;;14.23;4.82;;;;;;;;;;5039855;28;20041;-77
2023/10/06 07:58:00;;;;;;;17.05;5.38;;;;;;;;;;5043268;28;20068;-77
2023/10/06 08:00:30;;;;;;;20.92;5.72;;;;;;;;;;5048335;28;20676;-76
2023/10/06 08:03:00;;;;;;;22.38;5.63;;;;;;;;;;5043463;28;20301;-77
2023/10/06 08:05:26;;;;;;;20.00;5.10;;;;;;;;;;5050124;28;20076;-77
2023/10/06 08:07:52;;;;;;;21.90;5.20;;;;;;;;;;5047086;28;20110;-77
2023/10/06 08:10:23;;;;;;;21.42;5.05;;;;;;;;;;5051795;28;20040;-77
2023/10/06 08:12:52;;;;;;;21.48;5.50;;;;;;;;;;5054590;28;20044;-77
2023/10/06 08:15:32;;;;;;;21.73;6.75;;;;;;;;;;5043378;28;20072;-77
2023/10/06 08:17:58;;;;;;;26.83;5.93;;;;;;;;;;5049023;28;20115;-77
2023/10/06 08:20:25;;;;;;;21.20;5.78;;;;;;;;;;5043918;28;20057;-76
2023/10/06 08:22:51;;;;;;;23.10;6.38;;;;;;;;;;5036424;28;20462;-77
2023/10/06 08:25:18;;;;;;;27.38;6.05;;;;;;;;;;5042662;28;20045;-76
2023/10/06 08:27:44;;;;;;;18.38;5.38;;;;;;;;;;5052831;28;20045;-77
2023/10/06 08:30:16;;;;;;;20.35;6.40;;;;;;;;;;5038106;28;20049;-76
2023/10/06 08:32:45;;;;;;;16.17;4.90;;;;;;;;;;5075759;28;20049;-77
2023/10/06 08:35:14;;;;;;;19.45;5.43;;;;;;;;;;5043471;28;20032;-77
2023/10/06 08:37:44;;;;;;;19.60;5.60;;;;;;;;;;5055871;28;20052;-76
2023/10/06 08:40:17;;;;;;;18.10;5.80;;;;;;;;;;5084695;28;20041;-76
2023/10/06 08:42:51;;;;;;;20.20;7.00;;;;;;;;;;5057007;28;20053;-76
2023/10/06 08:45:19;;;;;;;17.42;5.07;;;;;;;;;;5060295;28;20045;-76
2023/10/06 08:47:46;;;;;;;16.90;5.38;;;;;;;;;;5066795;28;20049;-76
2023/10/06 08:50:14;;;;;;;15.90;5.78;;;;;;;;;;5046040;28;20045;-76
2023/10/06 08:52:41;;;;;;;23.00;6.13;;;;;;;;;;5062685;28;20048;-80
2023/10/06 08:55:07;;;;;;;19.42;5.70;;;;;;;;;;5050915;28;20505;-78
2023/10/06 08:57:41;;;;;;;22.35;5.80;;;;;;;;;;5064247;28;20051;-80
2023/10/06 09:00:10;;;;;;;22.52;6.13;;;;;;;;;;5050017;28;20055;-80
2023/10/06 09:02:36;;;;;;;19.50;5.57;;;;;;;;;;5062009;28;20049;-80
2023/10/06 09:05:03;;;;;;;22.35;6.07;;;;;;;;;;5053150;28;20045;-80
2023/10/06 09:07:29;;;;;;;21.52;5.65;;;;;;;;;;5050640;28;20057;-79
2023/10/06 09:09:59;;;;;;;24.88;5.88;;;;;;;;;;5061091;28;20484;-80
2023/10/06 09:12:26;;;;;;;21.38;5.68;;;;;;;;;;5060772;28;20059;-80
2023/10/06 09:14:54;;;;;;;22.67;5.47;;;;;;;;;;5055715;28;20388;-80
2023/10/06 09:17:39;;;;;;;20.10;5.65;;;;;;;;;;5049753;28;20048;-80
2023/10/06 09:20:11;;;;;;;19.95;5.18;;;;;;;;;;5047073;28;20037;-80
2023/10/06 09:22:44;;;;;;;23.40;5.28;;;;;;;;;;5041654;28;20037;-80
2023/10/06 09:25:12;;;;;;;23.38;6.00;;;;;;;;;;5054821;28;20055;-80
2023/10/06 09:27:38;;;;;;;22.73;6.43;;;;;;;;;;5041135;28;20123;-81
2023/10/06 09:30:10;;;;;;;18.25;5.38;;;;;;;;;;5044906;28;20411;-80
2023/10/06 09:32:37;;;;;;;24.95;6.47;;;;;;;;;;5046514;28;20128;-80
2023/10/06 09:35:18;;;;;;;21.63;5.70;;;;;;;;;;5038828;28;20049;-80
2023/10/06 09:37:45;;;;;;;17.05;5.70;;;;;;;;;;5047450;28;20523;-80
2023/10/06 09:40:20;;;;;;;15.73;5.50;;;;;;;;;;5050132;28;20488;-80
2023/10/06 09:42:50;;;;;;;20.15;5.53;;;;;;;;;;5030883;28;20049;-80
2023/10/06 09:45:24;;;;;;;23.92;5.53;;;;;;;;;;5041160;28;20554;-80
2023/10/06 09:47:56;;;;;;;18.65;5.43;;;;;;;;;;5047478;28;20512;-81
2023/10/06 09:50:23;;;;;;;25.40;6.65;;;;;;;;;;5048764;28;20595;-80
2023/10/06 09:52:50;;;;;;;21.67;5.65;;;;;;;;;;5050417;28;20056;-80
2023/10/06 09:55:17;;;;;;;18.63;5.60;;;;;;;;;;5047389;28;20136;-80
2023/10/06 09:57:47;;;;;;;21.73;5.95;;;;;;;;;;5047741;28;20582;-80
2023/10/06 10:00:16;;;;;;;18.23;6.22;;;;;;;;;;5034884;28;20092;-80
2023/10/06 10:02:47;;;;;;;25.42;6.43;;;;;;;;;;5041553;28;20056;-80
2023/10/06 10:05:14;;;;;;;20.13;5.30;;;;;;;;;;5049915;28;20080;-80
2023/10/06 10:07:41;;;;;;;25.33;5.85;;;;;;;;;;5043861;28;20338;-80
2023/10/06 10:10:13;;;;;;;25.17;6.43;;;;;;;;;;5051315;28;20128;-80
2023/10/06 10:12:56;;;;;;;22.80;6.20;;;;;;;;;;5049462;28;20037;-80
2023/10/06 10:15:37;;;;;;;20.15;5.18;;;;;;;;;;5044484;28;20045;-80
2023/10/06 10:18:11;;;;;;;20.52;5.50;;;;;;;;;;5050156;28;20064;-80
2023/10/06 10:20:37;;;;;;;23.88;6.75;;;;;;;;;;5049855;28;20144;-80
2023/10/06 10:23:03;;;;;;;21.33;5.80;;;;;;;;;;5044514;28;20045;-80
2023/10/06 10:25:36;;;;;;;24.00;6.30;;;;;;;;;;5054624;28;20400;-80
2023/10/06 10:28:19;;;;;;;20.17;6.07;;;;;;;;;;5050558;28;20075;-80
2023/10/06 10:30:56;;;;;;;20.38;6.25;;;;;;;;;;5052153;28;20049;-80
2023/10/06 10:33:28;;;;;;;23.35;6.75;;;;;;;;;;5045302;28;20041;-80
2023/10/06 10:36:19;;;;;;;24.48;6.07;;;;;;;;;;5052576;28;20146;-80
2023/10/06 10:38:46;;;;;;;29.13;6.03;;;;;;;;;;5050292;28;20367;-80
2023/10/06 10:41:12;;;;;;;21.90;6.22;;;;;;;;;;5053448;28;20053;-80
2023/10/06 10:43:39;;;;;;;25.88;6.65;;;;;;;;;;5052782;28;20106;-80
2023/10/06 10:46:06;;;;;;;19.40;5.00;;;;;;;;;;5051629;28;20041;-81
2023/10/06 10:48:47;;;;;;;24.13;6.95;;;;;;;;;;5051051;28;20049;-80
2023/10/06 10:51:14;;;;;;;23.90;6.38;;;;;;;;;;5038865;28;20053;-80
2023/10/06 10:53:44;;;;;;;18.95;5.90;;;;;;;;;;5048611;28;20049;-78
2023/10/06 10:56:27;;;;;;;28.27;6.35;;;;;;;;;;5049488;28;20052;-79
2023/10/06 10:58:54;;;;;;;15.23;5.70;;;;;;;;;;5051859;28;20132;-79
2023/10/06 11:01:29;;;;;;;18.92;4.78;;;;;;;;;;5051112;28;20378;-78
2023/10/06 11:04:14;;;;;;;18.58;5.63;;;;;;;;;;5043350;28;20112;-79
2023/10/06 11:06:40;;;;;;;21.77;6.18;;;;;;;;;;5041192;28;20162;-78
2023/10/06 11:09:58;;;;;;;21.10;5.70;;;;;;;;;;5047477;28;20737;-78
2023/10/06 11:12:02;;;;;;;18.55;5.63;;;;;;;;;;5042694;28;20131;-79
2023/10/06 11:14:30;;;;;;;22.02;6.93;;;;;;;;;;5042454;28;20125;-78
2023/10/06 11:17:05;;;;;;;22.65;6.53;;;;;;;;;;5085495;28;20124;-78
2023/10/06 11:19:32;;;;;;;18.88;5.25;;;;;;;;;;5050824;28;20062;-78
2023/10/06 11:22:10;;;;;;;24.40;5.50;;;;;;;;;;5049221;28;20130;-78
2023/10/06 11:24:36;;;;;;;18.70;5.20;;;;;;;;;;5047444;28;20064;-78
2023/10/06 11:27:16;;;;;;;23.77;5.75;;;;;;;;;;5044704;28;20144;-78
2023/10/06 11:29:42;;;;;;;17.92;6.15;;;;;;;;;;5049922;28;20589;-78
2023/10/06 11:32:08;;;;;;;20.35;5.82;;;;;;;;;;5046918;28;20131;-78
2023/10/06 11:34:37;;;;;;;18.60;5.13;;;;;;;;;;5041091;28;20128;-78
2023/10/06 11:37:05;;;;;;;23.88;6.00;;;;;;;;;;5038376;28;20489;-78
2023/10/06 11:39:31;;;;;;;24.58;6.50;;;;;;;;;;5044560;28;20045;-79
2023/10/06 11:42:16;;;;;;;20.95;5.93;;;;;;;;;;5049463;28;20048;-79
2023/10/06 11:44:42;;;;;;;21.25;6.10;;;;;;;;;;5052308;28;20052;-79
2023/10/06 11:47:08;;;;;;;30.00;6.93;;;;;;;;;;5046534;28;20378;-78
2023/10/06 11:49:34;;;;;;;20.95;6.10;;;;;;;;;;5048120;28;20085;-79
2023/10/06 11:52:01;;;;;;;15.35;5.25;;;;;;;;;;5051130;28;20049;-79
2023/10/06 11:54:29;;;;;;;18.60;5.68;;;;;;;;;;5046724;28;20091;-78
2023/10/06 11:56:57;;;;;;;20.50;5.65;;;;;;;;;;5048077;28;20099;-79
2023/10/06 11:59:23;;;;;;;25.92;6.60;;;;;;;;;;5041423;28;20045;-79
2023/10/06 12:01:49;;;;;;;25.05;6.50;;;;;;;;;;5043547;28;20079;-79
2023/10/06 12:04:31;;;;;;;21.45;6.63;;;;;;;;;;5041767;28;20045;-78
2023/10/06 12:07:00;;;;;;;21.58;6.32;;;;;;;;;;5047833;28;20049;-77
2023/10/06 12:09:30;;;;;;;22.33;5.63;;;;;;;;;;5034876;28;20100;-79
2023/10/06 12:12:01;;;;;;;18.48;6.22;;;;;;;;;;5052305;28;20484;-78
2023/10/06 12:14:27;;;;;;;25.33;5.80;;;;;;;;;;5052407;28;20095;-78
2023/10/06 12:16:57;;;;;;;22.58;5.47;;;;;;;;;;5046085;28;20053;-78
2023/10/06 12:19:26;;;;;;;25.40;6.50;;;;;;;;;;5031595;28;20045;-78
2023/10/06 12:21:52;;;;;;;21.05;5.53;;;;;;;;;;5053060;28;20566;-78
2023/10/06 12:24:22;;;;;;;21.58;6.28;;;;;;;;;;5053168;28;20096;-79
2023/10/06 12:26:48;;;;;;;21.02;6.07;;;;;;;;;;5048851;28;20052;-78
2023/10/06 12:29:16;;;;;;;23.13;6.20;;;;;;;;;;5049075;28;20045;-79
2023/10/06 12:31:44;;;;;;;15.18;4.80;;;;;;;;;;5048781;28;20412;-79
2023/10/06 12:34:14;;;;;;;22.98;6.25;;;;;;;;;;5051499;28;20143;-79
2023/10/06 12:36:41;;;;;;;24.10;6.03;;;;;;;;;;5051178;28;20590;-78
2023/10/06 12:39:12;;;;;;;19.92;5.40;;;;;;;;;;5038011;28;20084;-79
2023/10/06 12:41:46;;;;;;;22.10;5.72;;;;;;;;;;5050777;28;20519;-78
2023/10/06 12:44:12;;;;;;;15.05;5.05;;;;;;;;;;5030761;28;20124;-79
2023/10/06 12:46:38;;;;;;;23.70;6.18;;;;;;;;;;5046996;28;20040;-79
2023/10/06 12:49:06;;;;;;;21.38;6.07;;;;;;;;;;5041275;28;20492;-79
2023/10/06 12:51:33;;;;;;;20.55;5.43;;;;;;;;;;5049614;28;20076;-79
2023/10/06 12:54:00;;;;;;;22.58;5.78;;;;;;;;;;5053451;28;20120;-79
2023/10/06 12:56:28;;;;;;;19.70;5.95;;;;;;;;;;5049738;28;20056;-78
2023/10/06 12:58:54;;;;;;;20.60;5.95;;;;;;;;;;5050543;28;20053;-78
2023/10/06 13:01:20;;;;;;;27.92;5.75;;;;;;;;;;5042562;28;20055;-79
2023/10/06 13:03:46;;;;;;;23.85;5.95;;;;;;;;;;5050637;28;20056;-79
2023/10/06 13:06:13;;;;;;;21.30;5.85;;;;;;;;;;5049897;28;20040;-78
2023/10/06 13:08:42;;;;;;;27.13;6.70;;;;;;;;;;5048105;28;20049;-79
2023/10/06 13:11:10;;;;;;;16.17;5.82;;;;;;;;;;5049589;28;20834;-79
2023/10/06 13:13:36;;;;;;;17.75;5.50;;;;;;;;;;5049341;28;20051;-79
2023/10/06 13:16:08;;;;;;;24.17;6.00;;;;;;;;;;5049088;28;20052;-78
2023/10/06 13:18:36;;;;;;;25.38;6.60;;;;;;;;;;5049446;28;20054;-78
2023/10/06 13:21:07;;;;;;;17.75;5.32;;;;;;;;;;5045310;28;20111;-79
2023/10/06 13:23:34;;;;;;;20.27;6.20;;;;;;;;;;5050526;28;20052;-78
2023/10/06 13:26:00;;;;;;;22.15;5.85;;;;;;;;;;5040625;28;20044;-79
2023/10/06 13:28:28;;;;;;;23.25;6.07;;;;;;;;;;5049700;28;20056;-78
2023/10/06 13:30:54;;;;;;;27.45;5.93;;;;;;;;;;5045052;28;20045;-79
2023/10/06 13:33:20;;;;;;;22.83;6.75;;;;;;;;;;5049240;28;20088;-79
2023/10/06 13:35:47;;;;;;;19.40;6.18;;;;;;;;;;5049044;28;20037;-79
2023/10/06 13:38:16;;;;;;;19.58;5.65;;;;;;;;;;5049461;28;20080;-79
2023/10/06 13:40:44;;;;;;;22.83;5.88;;;;;;;;;;5036813;28;20061;-79
2023/10/06 13:43:11;;;;;;;19.77;6.43;;;;;;;;;;5050320;28;20091;-79
2023/10/06 13:45:39;;;;;;;18.77;5.22;;;;;;;;;;5049396;28;20113;-78
2023/10/06 13:48:09;;;;;;;21.67;5.90;;;;;;;;;;5050556;28;20049;-79
2023/10/06 13:50:36;;;;;;;29.17;6.53;;;;;;;;;;5047198;28;20091;-79
2023/10/06 13:53:03;;;;;;;21.90;5.95;;;;;;;;;;5048250;28;20103;-80
2023/10/06 13:55:32;;;;;;;16.63;5.28;;;;;;;;;;5049945;28;20053;-79
2023/10/06 13:58:01;;;;;;;23.70;6.30;;;;;;;;;;5049660;28;20041;-79
2023/10/06 14:00:38;;;;;;;17.40;5.88;;;;;;;;;;5048387;28;20500;-79
2023/10/06 14:03:07;;;;;;;20.17;5.68;;;;;;;;;;5053311;28;20049;-79
2023/10/06 14:05:34;;;;;;;20.17;5.80;;;;;;;;;;5047707;28;20107;-78
2023/10/06 14:08:03;;;;;;;18.52;5.65;;;;;;;;;;5049080;28;20049;-79
2023/10/06 14:10:31;;;;;;;21.02;5.10;;;;;;;;;;5050498;28;20072;-79
2023/10/06 14:15:44;;;;;;;16.58;5.10;;;;;;;;;;5048793;28;20095;-78
2023/10/06 14:18:14;;;;;;;19.25;6.28;;;;;;;;;;5047287;28;20199;-79
2023/10/06 14:20:43;;;;;;;20.55;6.10;;;;;;;;;;5049223;28;20041;-78
2023/10/06 14:23:11;;;;;;;22.83;6.25;;;;;;;;;;5047689;28;20371;-78
2023/10/06 14:25:38;;;;;;;25.58;5.95;;;;;;;;;;5050628;28;20553;-79
2023/10/06 14:28:07;;;;;;;25.90;6.68;;;;;;;;;;5050718;28;20393;-79
2023/10/06 14:30:35;;;;;;;18.30;5.90;;;;;;;;;;5048488;28;20182;-78
2023/10/06 14:33:14;;;;;;;19.73;5.75;;;;;;;;;;5070832;28;20056;-79
2023/10/06 14:36:32;;;;;;;21.88;6.25;;;;;;;;;;5045501;28;20412;-77
2023/10/06 14:46:36;;;;;;;18.65;5.30;;;;;;;;;;5046415;28;20045;-76
2023/10/06 14:49:03;;;;;;;24.50;6.10;;;;;;;;;;5049116;28;20083;-77
2023/10/06 14:51:33;;;;;;;17.48;5.30;;;;;;;;;;5049757;28;20133;-76
2023/10/06 14:54:00;;;;;;;25.60;6.40;;;;;;;;;;5049524;28;20051;-77
2023/10/06 14:56:26;;;;;;;22.73;5.75;;;;;;;;;;5044820;28;20088;-77
2023/10/06 14:58:57;;;;;;;20.40;5.78;;;;;;;;;;5049588;28;20049;-76
2023/10/06 15:01:24;;;;;;;21.80;5.88;;;;;;;;;;5052987;28;20396;-76